Terminal Aerodrome Forecast
Issued by NWS Binghamton, NY

Home | Current Version | Previous Version | Text Only | Print | Product List | Glossary On
Versions: 1 2 3 4 5 6 7 8 9 10 11 12 13 14 15 16 17
000
FTUS41 KBGM 301309 AAA
TAFSYR
TAF AMD
KSYR 301309Z 3013/3112 26010KT P6SM SCT025 OVC050
      TEMPO 3013/3014 2SM -SHRA BR BKN025 OVC040
     FM301400 27010G18KT P6SM BKN060
     FM302000 28011G17KT P6SM FEW070
     FM302300 26008KT P6SM FEW250=

USA.gov is the U.S. government's official web portal to all federal, state and local government web resources and services.